createdAt,value
2023-07-25T00:01:09.802Z,56.27
2023-07-25T00:03:36.997Z,56.42
2023-07-25T00:06:04.679Z,56.21
2023-07-25T00:08:32.926Z,56.29
2023-07-25T00:11:00.511Z,56.21
2023-07-25T00:13:27.991Z,56.19
2023-07-25T00:15:54.664Z,56.22
2023-07-25T00:18:21.458Z,56.41
2023-07-25T00:20:48.152Z,56.44
2023-07-25T00:23:14.857Z,56.48
2023-07-25T00:25:41.558Z,56.63
2023-07-25T00:28:08.247Z,56.57
2023-07-25T00:30:34.914Z,56.89
2023-07-25T00:33:01.588Z,56.66
2023-07-25T00:35:28.251Z,56.66
2023-07-25T00:37:54.894Z,57.22
2023-07-25T00:40:21.589Z,57.56
2023-07-25T00:42:48.242Z,57.70
2023-07-25T00:45:15.089Z,58.10
2023-07-25T00:47:41.736Z,58.14
2023-07-25T00:50:08.902Z,58.33
2023-07-25T00:52:35.578Z,58.71
2023-07-25T00:55:03.405Z,58.83
2023-07-25T00:57:31.998Z,58.95
2023-07-25T00:59:58.701Z,59.02
2023-07-25T01:02:25.932Z,59.22
2023-07-25T01:04:52.758Z,59.38
2023-07-25T01:07:20.521Z,59.51
2023-07-25T01:09:47.679Z,59.44
2023-07-25T01:12:14.537Z,59.39
2023-07-25T01:14:42.233Z,58.99
2023-07-25T01:17:18.385Z,59.09
2023-07-25T01:19:47.773Z,59.12
2023-07-25T01:22:14.962Z,59.15
2023-07-25T01:24:47.182Z,60.32
2023-07-25T01:27:17.642Z,61.10
2023-07-25T01:29:44.735Z,62.51
2023-07-25T01:32:12.094Z,63.72
2023-07-25T01:34:39.741Z,64.14
2023-07-25T01:37:07.776Z,64.99
2023-07-25T01:39:34.809Z,65.09
2023-07-25T01:42:01.583Z,65.60
2023-07-25T01:44:28.284Z,65.45
2023-07-25T01:46:58.245Z,64.85
2023-07-25T01:49:25.179Z,65.43
2023-07-25T01:51:51.851Z,65.72
2023-07-25T01:54:19.796Z,65.65
2023-07-25T01:56:50.046Z,65.55
2023-07-25T01:59:17.702Z,65.09
2023-07-25T02:01:44.538Z,64.70
2023-07-25T02:04:11.262Z,64.29
2023-07-25T02:06:38.257Z,64.14
2023-07-25T02:09:04.925Z,64.24
2023-07-25T02:11:32.473Z,63.96
2023-07-25T02:14:00.329Z,63.58
2023-07-25T02:16:28.413Z,64.83
2023-07-25T02:18:56.378Z,65.10
2023-07-25T02:21:24.197Z,65.51
2023-07-25T02:23:54.509Z,65.52
2023-07-25T02:26:23.018Z,65.77
2023-07-25T02:28:51.310Z,65.94
2023-07-25T02:31:19.775Z,65.72
2023-07-25T02:33:47.356Z,65.90
2023-07-25T02:36:22.557Z,65.63
2023-07-25T02:38:50.761Z,65.51
2023-07-25T02:41:19.251Z,65.55
2023-07-25T02:43:47.181Z,66.17
2023-07-25T02:46:14.358Z,66.17
2023-07-25T02:48:41.534Z,67.51
2023-07-25T02:51:11.043Z,68.25
2023-07-25T02:53:38.143Z,67.47
2023-07-25T02:56:05.223Z,68.26
2023-07-25T02:58:32.721Z,68.42
2023-07-25T03:01:01.309Z,68.76
2023-07-25T03:03:29.148Z,69.00
2023-07-25T03:05:56.453Z,68.87
2023-07-25T03:08:23.933Z,69.01
2023-07-25T03:10:51.388Z,68.79
2023-07-25T03:13:19.133Z,69.13
2023-07-25T03:15:46.778Z,68.99
2023-07-25T03:18:14.292Z,68.78
2023-07-25T03:20:42.139Z,68.82
2023-07-25T03:23:10.171Z,68.63
2023-07-25T03:25:37.329Z,68.51
2023-07-25T03:28:04.966Z,69.30
2023-07-25T03:30:32.028Z,69.03
2023-07-25T03:33:00.051Z,68.82
2023-07-25T03:35:27.852Z,69.00
2023-07-25T03:37:55.512Z,68.76
2023-07-25T03:40:22.945Z,67.94
2023-07-25T03:42:50.163Z,67.59
2023-07-25T03:45:17.568Z,66.51
2023-07-25T03:47:45.223Z,62.29
2023-07-25T03:50:12.849Z,57.86
2023-07-25T03:52:41.167Z,53.84
2023-07-25T03:55:09.319Z,51.59
2023-07-25T03:57:36.365Z,51.57
2023-07-25T04:00:06.003Z,51.70
2023-07-25T04:02:39.245Z,52.17
2023-07-25T04:05:08.847Z,50.03
2023-07-25T04:07:36.371Z,47.88
2023-07-25T04:10:04.542Z,48.25
2023-07-25T04:12:32.510Z,45.61
2023-07-25T04:15:00.018Z,42.69
2023-07-25T04:17:27.090Z,40.74
2023-07-25T04:19:54.022Z,39.55
2023-07-25T04:22:21.420Z,38.39
2023-07-25T04:24:48.834Z,37.15
2023-07-25T04:27:16.207Z,36.68
2023-07-25T04:29:43.334Z,36.12
2023-07-25T04:32:10.406Z,35.98
2023-07-25T04:34:37.993Z,36.23
2023-07-25T04:37:05.723Z,36.30
2023-07-25T04:39:33.088Z,35.07
2023-07-25T04:42:00.577Z,33.67
2023-07-25T04:44:27.775Z,32.94
2023-07-25T04:46:54.954Z,33.34
2023-07-25T04:49:22.448Z,32.19
2023-07-25T04:51:49.545Z,32.81
2023-07-25T04:54:16.594Z,32.33
2023-07-25T04:56:45.033Z,33.26
2023-07-25T04:59:12.154Z,33.01
2023-07-25T05:01:39.423Z,33.98
2023-07-25T05:04:08.015Z,32.48
2023-07-25T05:06:35.357Z,31.40
2023-07-25T05:09:02.754Z,32.13
2023-07-25T05:11:30.337Z,30.95
2023-07-25T05:13:58.129Z,32.31
2023-07-25T05:16:25.596Z,31.64
2023-07-25T05:18:53.320Z,31.79
2023-07-25T05:21:20.424Z,34.18
2023-07-25T05:23:47.711Z,34.61
2023-07-25T05:26:15.150Z,35.24
2023-07-25T05:28:42.548Z,37.02
2023-07-25T05:31:10.084Z,38.81
2023-07-25T05:33:37.248Z,38.44
2023-07-25T05:36:05.344Z,41.13
2023-07-25T05:38:32.493Z,42.13
2023-07-25T05:40:59.721Z,43.34
2023-07-25T05:43:27.043Z,44.29
2023-07-25T05:45:53.964Z,45.68
2023-07-25T05:48:21.046Z,46.77
2023-07-25T05:50:55.342Z,48.65
2023-07-25T05:53:22.729Z,49.72
2023-07-25T05:55:49.912Z,51.88
2023-07-25T05:58:18.207Z,52.04
2023-07-25T06:00:46.294Z,52.02
2023-07-25T06:03:14.823Z,52.67
2023-07-25T06:05:42.927Z,53.43
2023-07-25T06:08:10.624Z,53.10
2023-07-25T06:10:38.165Z,53.57
2023-07-25T06:13:06.077Z,54.26
2023-07-25T06:15:35.848Z,54.76
2023-07-25T06:18:04.648Z,54.75
2023-07-25T06:20:35.724Z,55.86
2023-07-25T06:23:03.630Z,56.46
2023-07-25T06:25:31.027Z,58.58
2023-07-25T06:27:58.840Z,62.66
2023-07-25T06:30:26.382Z,63.88
2023-07-25T06:32:55.445Z,65.62
2023-07-25T06:35:23.942Z,66.20
2023-07-25T06:37:51.481Z,67.44
2023-07-25T06:40:18.978Z,69.21
2023-07-25T06:42:46.168Z,69.35
2023-07-25T06:45:15.065Z,70.74
2023-07-25T06:47:42.849Z,71.11
2023-07-25T06:50:10.504Z,71.80
2023-07-25T06:52:37.821Z,72.51
2023-07-25T06:55:05.393Z,73.69
2023-07-25T06:57:32.683Z,73.40
2023-07-25T07:00:00.525Z,75.69
2023-07-25T07:02:27.846Z,76.66
2023-07-25T07:04:54.895Z,77.61
2023-07-25T07:07:22.087Z,78.93
2023-07-25T07:09:49.370Z,80.39
2023-07-25T07:12:17.595Z,80.00
2023-07-25T07:14:45.046Z,81.78
2023-07-25T07:17:12.325Z,83.53
2023-07-25T07:19:39.445Z,84.14
2023-07-25T07:22:06.418Z,84.45
2023-07-25T07:24:33.557Z,85.21
2023-07-25T07:27:00.718Z,85.59
2023-07-25T07:29:29.319Z,87.36
2023-07-25T07:32:00.702Z,87.94
2023-07-25T07:34:27.554Z,88.23
2023-07-25T07:36:54.418Z,87.94
2023-07-25T07:39:21.540Z,88.63
2023-07-25T07:41:48.734Z,88.99
2023-07-25T07:44:15.642Z,89.32
2023-07-25T07:46:42.574Z,89.74
2023-07-25T07:49:09.744Z,89.18
2023-07-25T07:51:36.692Z,89.94
2023-07-25T07:54:03.708Z,89.29
2023-07-25T07:56:30.725Z,89.90
2023-07-25T07:58:57.659Z,91.10
2023-07-25T08:01:25.371Z,91.05
2023-07-25T08:03:52.813Z,91.09
2023-07-25T08:06:20.416Z,90.82
2023-07-25T08:08:48.646Z,91.52
2023-07-25T08:11:15.780Z,92.13
2023-07-25T08:13:42.864Z,93.37
2023-07-25T08:16:10.403Z,93.38
2023-07-25T08:18:37.845Z,92.98
2023-07-25T08:21:06.485Z,93.31
2023-07-25T08:23:33.355Z,94.05
2023-07-25T08:25:59.942Z,94.14
2023-07-25T08:28:26.678Z,94.67
2023-07-25T08:31:03.594Z,94.78
2023-07-25T08:33:35.813Z,94.73
2023-07-25T08:36:02.819Z,94.52
2023-07-25T08:38:29.941Z,94.91
2023-07-25T08:41:06.103Z,95.21
2023-07-25T08:43:39.105Z,94.97
2023-07-25T08:46:10.644Z,96.07
2023-07-25T08:48:44.479Z,96.47
2023-07-25T08:51:23.715Z,96.31
2023-07-25T08:54:10.264Z,96.74
2023-07-25T08:56:39.027Z,97.54
2023-07-25T08:59:07.362Z,98.01
2023-07-25T09:01:34.479Z,97.88
2023-07-25T09:04:02.939Z,98.25
2023-07-25T09:06:32.017Z,98.71
2023-07-25T09:08:59.013Z,98.74
2023-07-25T09:11:27.145Z,98.38
2023-07-25T09:13:54.320Z,96.73
2023-07-25T09:16:21.281Z,96.91
2023-07-25T09:18:48.017Z,95.91
2023-07-25T09:21:16.179Z,97.22
2023-07-25T09:24:00.292Z,98.90
2023-07-25T09:26:29.992Z,100.00
2023-07-25T09:29:00.818Z,100.00
2023-07-25T09:31:29.407Z,100.00
2023-07-25T09:33:57.399Z,100.00
2023-07-25T09:36:24.289Z,100.00
2023-07-25T09:38:55.839Z,100.00
2023-07-25T09:41:24.365Z,100.00
2023-07-25T09:43:52.108Z,100.00
2023-07-25T09:46:19.501Z,100.00
2023-07-25T09:48:49.135Z,99.61
2023-07-25T09:51:15.982Z,93.83
2023-07-25T09:53:44.161Z,91.64
2023-07-25T09:56:11.565Z,91.04
2023-07-25T09:58:50.729Z,87.94
2023-07-25T10:01:27.090Z,84.82
2023-07-25T10:03:54.449Z,86.17
2023-07-25T10:06:21.455Z,84.39
2023-07-25T10:08:48.766Z,84.87
2023-07-25T10:11:16.389Z,82.98
2023-07-25T10:13:43.660Z,78.68
2023-07-25T10:16:15.283Z,76.99
2023-07-25T10:18:42.573Z,77.72
2023-07-25T10:21:12.431Z,75.73
2023-07-25T10:23:39.337Z,74.87
2023-07-25T10:26:17.675Z,75.65
2023-07-25T10:28:44.553Z,75.13
2023-07-25T10:31:31.725Z,76.44
2023-07-25T10:33:59.838Z,77.40
2023-07-25T10:36:27.328Z,77.82
2023-07-25T10:39:05.274Z,78.40
2023-07-25T10:41:32.142Z,78.21
2023-07-25T10:44:03.528Z,80.36
2023-07-25T10:46:32.728Z,81.04
2023-07-25T10:49:00.529Z,82.42
2023-07-25T10:51:50.017Z,83.10
2023-07-25T10:54:21.316Z,83.25
2023-07-25T10:57:09.987Z,82.98
2023-07-25T11:00:00.742Z,83.05
2023-07-25T11:02:41.988Z,83.51
2023-07-25T11:05:14.776Z,82.19
2023-07-25T11:07:50.170Z,82.50
2023-07-25T11:10:21.413Z,82.36
2023-07-25T11:12:53.416Z,82.09
2023-07-25T11:15:26.120Z,82.13
2023-07-25T11:18:07.775Z,82.92
2023-07-25T11:20:34.501Z,83.53
2023-07-25T11:23:01.217Z,84.37
2023-07-25T11:25:28.045Z,85.39
2023-07-25T11:27:54.802Z,84.60
2023-07-25T11:30:22.045Z,85.02
2023-07-25T11:32:51.483Z,85.86
2023-07-25T11:35:18.420Z,85.89
2023-07-25T11:37:46.065Z,84.58
2023-07-25T11:40:18.455Z,83.68
2023-07-25T11:42:47.249Z,82.95
2023-07-25T11:45:15.147Z,81.46
2023-07-25T11:47:46.302Z,82.64
2023-07-25T11:50:24.871Z,82.36
2023-07-25T11:52:54.366Z,83.78
2023-07-25T11:55:21.446Z,83.52
2023-07-25T11:57:48.945Z,83.29
2023-07-25T12:00:17.425Z,83.31
2023-07-25T12:02:44.429Z,82.36
2023-07-25T12:05:27.905Z,84.54
2023-07-25T12:08:01.653Z,84.32
2023-07-25T12:10:32.738Z,83.58
2023-07-25T12:13:03.144Z,84.84
2023-07-25T12:15:47.677Z,85.02
2023-07-25T12:18:30.768Z,86.33
2023-07-25T12:20:59.977Z,86.80
2023-07-25T12:23:40.259Z,85.37
2023-07-25T12:26:09.109Z,82.97
2023-07-25T12:28:40.650Z,80.58
2023-07-25T12:31:07.374Z,80.41
2023-07-25T12:33:34.213Z,78.50
2023-07-25T12:36:02.242Z,77.52
2023-07-25T12:38:28.925Z,77.77
2023-07-25T12:41:09.059Z,72.42
2023-07-25T12:43:35.805Z,69.45
2023-07-25T12:46:03.145Z,68.15
2023-07-25T12:48:29.865Z,67.18
2023-07-25T12:50:56.719Z,67.31
2023-07-25T12:53:23.394Z,67.85
2023-07-25T12:55:50.199Z,67.79
2023-07-25T12:58:16.854Z,65.53
2023-07-25T13:00:43.827Z,64.76
2023-07-25T13:03:10.766Z,64.42
2023-07-25T13:05:37.660Z,63.45
2023-07-25T13:08:05.375Z,64.39
2023-07-25T13:10:32.255Z,64.31
2023-07-25T13:12:58.845Z,66.05
2023-07-25T13:15:26.077Z,64.50
2023-07-25T13:17:52.846Z,65.37
2023-07-25T13:20:19.580Z,63.79
2023-07-25T13:22:46.307Z,62.17
2023-07-25T13:25:13.158Z,62.24
2023-07-25T13:27:39.831Z,62.23
2023-07-25T13:30:07.373Z,62.50
2023-07-25T13:32:34.060Z,60.07
2023-07-25T13:35:01.627Z,57.13
2023-07-25T13:37:33.514Z,58.05
2023-07-25T13:40:00.333Z,57.54
2023-07-25T13:42:27.413Z,56.08
2023-07-25T13:44:54.179Z,56.89
2023-07-25T13:47:21.684Z,57.93
2023-07-25T13:49:48.491Z,56.41
2023-07-25T13:52:15.228Z,53.04
2023-07-25T13:54:41.829Z,55.00
2023-07-25T13:57:10.946Z,56.02
2023-07-25T13:59:37.695Z,56.91
2023-07-25T14:02:04.481Z,58.08
2023-07-25T14:04:31.283Z,55.74
2023-07-25T14:06:57.987Z,55.58
2023-07-25T14:09:24.623Z,55.98
2023-07-25T14:11:51.550Z,57.37
2023-07-25T14:14:18.267Z,55.48
2023-07-25T14:16:45.004Z,56.53
2023-07-25T14:19:11.848Z,56.98
2023-07-25T14:21:38.592Z,57.48
2023-07-25T14:24:06.191Z,56.12
2023-07-25T14:26:36.472Z,53.11
2023-07-25T14:29:04.953Z,52.51
2023-07-25T14:31:32.808Z,52.07
2023-07-25T14:34:00.870Z,52.61
2023-07-25T14:36:28.213Z,51.80
2023-07-25T14:38:57.100Z,51.07
2023-07-25T14:41:24.990Z,51.70
2023-07-25T14:43:53.398Z,52.74
2023-07-25T14:46:21.972Z,50.49
2023-07-25T14:48:50.914Z,52.45
2023-07-25T14:51:18.856Z,51.83
2023-07-25T14:53:46.869Z,52.49
2023-07-25T14:56:14.792Z,51.44
2023-07-25T14:58:42.901Z,51.11
2023-07-25T15:01:10.607Z,50.38
2023-07-25T15:03:38.322Z,50.43
2023-07-25T15:06:06.597Z,49.88
2023-07-25T15:08:33.903Z,50.52
2023-07-25T15:11:05.527Z,51.84
2023-07-25T15:13:33.435Z,51.08
2023-07-25T15:16:01.356Z,49.91
2023-07-25T15:18:28.413Z,51.40
2023-07-25T15:20:55.599Z,52.02
2023-07-25T15:23:22.996Z,52.38
2023-07-25T15:25:50.822Z,51.83
2023-07-25T15:28:19.302Z,52.41
2023-07-25T15:30:46.835Z,52.03
2023-07-25T15:33:14.375Z,51.40
2023-07-25T15:35:41.667Z,51.97
2023-07-25T15:38:10.098Z,52.11
2023-07-25T15:40:38.417Z,52.64
2023-07-25T15:43:10.529Z,52.85
2023-07-25T15:45:38.727Z,52.79
2023-07-25T15:48:07.434Z,52.02
2023-07-25T15:50:35.670Z,51.02
2023-07-25T15:53:03.140Z,52.02
2023-07-25T15:55:31.269Z,50.54
2023-07-25T15:57:58.582Z,50.85
2023-07-25T16:00:26.325Z,50.59
2023-07-25T16:02:54.871Z,50.36
2023-07-25T16:05:23.650Z,50.85
2023-07-25T16:07:54.222Z,50.82
2023-07-25T16:10:22.148Z,51.14
2023-07-25T16:12:49.720Z,49.85
2023-07-25T16:15:17.712Z,50.67
2023-07-25T16:17:45.152Z,51.18
2023-07-25T16:20:13.318Z,50.72
2023-07-25T16:22:41.667Z,51.17
2023-07-25T16:25:09.861Z,51.70
2023-07-25T16:27:38.148Z,52.46
2023-07-25T16:30:06.869Z,53.22
2023-07-25T16:32:35.065Z,53.20
2023-07-25T16:35:03.368Z,53.70
2023-07-25T16:37:30.565Z,53.26
2023-07-25T16:39:58.036Z,53.20
2023-07-25T16:42:26.553Z,53.31
2023-07-25T16:44:55.745Z,53.88
2023-07-25T16:47:23.406Z,53.97
2023-07-25T16:49:51.358Z,54.37
2023-07-25T16:52:19.470Z,54.47
2023-07-25T16:54:46.875Z,53.69
2023-07-25T16:57:14.262Z,54.41
2023-07-25T16:59:42.576Z,54.68
2023-07-25T17:02:10.762Z,55.09
2023-07-25T17:04:38.786Z,55.69
2023-07-25T17:07:06.730Z,55.59
2023-07-25T17:09:34.402Z,55.79
2023-07-25T17:12:04.941Z,55.66
2023-07-25T17:14:33.082Z,57.00
2023-07-25T17:17:00.453Z,56.78
2023-07-25T17:19:27.851Z,56.72
2023-07-25T17:21:56.504Z,55.91
2023-07-25T17:24:24.702Z,55.99
2023-07-25T17:26:53.702Z,54.50
2023-07-25T17:29:26.855Z,53.85
2023-07-25T17:31:54.704Z,53.68
2023-07-25T17:34:24.056Z,53.38
2023-07-25T17:36:52.416Z,53.79
2023-07-25T17:39:20.210Z,52.59
2023-07-25T17:41:48.033Z,53.68
2023-07-25T17:44:16.053Z,53.25
2023-07-25T17:46:43.777Z,53.26
2023-07-25T17:49:12.811Z,53.53
2023-07-25T17:51:40.286Z,54.00
2023-07-25T17:54:07.987Z,54.58
2023-07-25T17:56:35.755Z,55.34
2023-07-25T17:59:03.589Z,55.29
2023-07-25T18:01:31.746Z,55.09
2023-07-25T18:04:00.128Z,55.77
2023-07-25T18:06:28.668Z,55.34
2023-07-25T18:08:56.417Z,56.35
2023-07-25T18:11:24.260Z,55.32
2023-07-25T18:13:52.303Z,54.84
2023-07-25T18:16:20.116Z,55.40
2023-07-25T18:18:47.892Z,54.95
2023-07-25T18:21:15.853Z,55.32
2023-07-25T18:23:43.276Z,54.93
2023-07-25T18:26:11.232Z,55.10
2023-07-25T18:28:38.944Z,55.42
2023-07-25T18:31:06.929Z,55.01
2023-07-25T18:33:34.869Z,55.57
2023-07-25T18:36:02.455Z,55.55
2023-07-25T18:38:30.427Z,55.79
2023-07-25T18:40:57.753Z,56.67
2023-07-25T18:43:26.530Z,56.55
2023-07-25T18:45:56.107Z,57.33
2023-07-25T18:48:23.938Z,57.20
2023-07-25T18:50:54.094Z,57.56
2023-07-25T18:53:21.530Z,57.71
2023-07-25T18:55:51.295Z,57.53
2023-07-25T18:58:18.966Z,58.20
2023-07-25T19:00:46.328Z,58.20
2023-07-25T19:03:14.788Z,57.98
2023-07-25T19:05:42.420Z,58.51
2023-07-25T19:08:09.838Z,59.02
2023-07-25T19:10:37.807Z,58.43
2023-07-25T19:13:05.654Z,57.79
2023-07-25T19:15:34.045Z,57.67
2023-07-25T19:18:02.271Z,58.35
2023-07-25T19:20:30.436Z,58.63
2023-07-25T19:23:07.810Z,58.39
2023-07-25T19:25:43.306Z,58.33
2023-07-25T19:28:12.776Z,58.57
2023-07-25T19:30:44.498Z,58.72
2023-07-25T19:33:12.713Z,58.49
2023-07-25T19:35:41.690Z,58.46
2023-07-25T19:38:12.199Z,58.80
2023-07-25T19:40:39.884Z,58.59
2023-07-25T19:43:07.713Z,58.33
2023-07-25T19:45:36.696Z,58.48
2023-07-25T19:48:04.573Z,58.38
2023-07-25T19:50:33.108Z,58.03
2023-07-25T19:53:00.217Z,58.26
2023-07-25T19:55:28.462Z,58.06
2023-07-25T19:57:56.269Z,58.86
2023-07-25T20:00:24.016Z,59.04
2023-07-25T20:02:52.157Z,59.87
2023-07-25T20:05:19.372Z,61.07
2023-07-25T20:07:46.531Z,61.95
2023-07-25T20:10:14.269Z,62.69
2023-07-25T20:12:43.296Z,63.34
2023-07-25T20:15:11.214Z,64.92
2023-07-25T20:17:38.762Z,66.58
2023-07-25T20:20:07.445Z,67.87
2023-07-25T20:22:35.351Z,68.78
2023-07-25T20:25:02.550Z,69.14
2023-07-25T20:27:29.583Z,69.71
2023-07-25T20:29:56.229Z,69.98
2023-07-25T20:32:22.921Z,70.10
2023-07-25T20:34:49.561Z,70.45
2023-07-25T20:37:16.234Z,70.59
2023-07-25T20:39:43.015Z,70.24
2023-07-25T20:42:09.726Z,70.31
2023-07-25T20:44:36.486Z,70.31
2023-07-25T20:47:03.414Z,70.90
2023-07-25T20:49:30.063Z,70.28
2023-07-25T20:51:56.732Z,69.69
2023-07-25T20:54:23.473Z,68.72
2023-07-25T20:56:50.192Z,68.61
2023-07-25T20:59:16.900Z,67.89
2023-07-25T21:01:43.935Z,67.58
2023-07-25T21:04:10.565Z,66.39
2023-07-25T21:06:37.962Z,66.70
2023-07-25T21:09:05.021Z,65.49
2023-07-25T21:11:31.729Z,64.74
2023-07-25T21:13:58.332Z,64.94
2023-07-25T21:16:25.072Z,64.60
2023-07-25T21:18:52.453Z,64.24
2023-07-25T21:21:19.324Z,63.94
2023-07-25T21:23:46.054Z,63.97
2023-07-25T21:26:12.690Z,63.27
2023-07-25T21:28:39.338Z,63.53
2023-07-25T21:31:10.213Z,63.86
2023-07-25T21:33:37.417Z,63.88
2023-07-25T21:36:10.548Z,63.64
2023-07-25T21:38:37.515Z,63.07
2023-07-25T21:41:06.671Z,63.42
2023-07-25T21:43:33.927Z,62.74
2023-07-25T21:46:02.101Z,63.13
2023-07-25T21:48:29.261Z,63.14
2023-07-25T21:50:57.234Z,63.14
2023-07-25T21:53:27.639Z,63.11
2023-07-25T21:55:55.123Z,63.34
2023-07-25T21:58:22.474Z,62.95
2023-07-25T22:00:49.185Z,62.62
2023-07-25T22:03:16.285Z,62.57
2023-07-25T22:05:43.046Z,63.01
2023-07-25T22:08:09.845Z,62.42
2023-07-25T22:10:36.765Z,62.84
2023-07-25T22:13:03.514Z,62.33
2023-07-25T22:15:30.429Z,62.14
2023-07-25T22:17:57.133Z,62.32
2023-07-25T22:20:25.862Z,62.08
2023-07-25T22:22:56.594Z,62.13
2023-07-25T22:25:23.263Z,62.03
2023-07-25T22:27:53.633Z,61.96
2023-07-25T22:30:20.564Z,62.16
2023-07-25T22:32:47.918Z,62.13
2023-07-25T22:35:14.593Z,62.08
2023-07-25T22:37:41.471Z,61.75
2023-07-25T22:40:08.710Z,62.16
2023-07-25T22:42:35.420Z,61.89
2023-07-25T22:45:02.239Z,62.31
2023-07-25T22:47:29.616Z,61.70
2023-07-25T22:49:56.223Z,61.68
2023-07-25T22:52:23.436Z,61.37
2023-07-25T22:54:50.394Z,61.39
2023-07-25T22:57:17.107Z,61.03
2023-07-25T22:59:45.259Z,61.29
2023-07-25T23:02:11.955Z,61.51
2023-07-25T23:04:38.666Z,61.60
2023-07-25T23:07:07.981Z,61.34
2023-07-25T23:09:34.840Z,60.67
2023-07-25T23:12:01.594Z,61.06
2023-07-25T23:14:28.334Z,60.89
2023-07-25T23:16:55.077Z,61.10
2023-07-25T23:19:21.773Z,61.31
2023-07-25T23:21:48.443Z,61.56
2023-07-25T23:24:15.076Z,61.65
2023-07-25T23:26:43.125Z,61.62
2023-07-25T23:29:09.877Z,61.29
2023-07-25T23:31:36.802Z,60.97
2023-07-25T23:34:03.560Z,60.97
2023-07-25T23:36:30.620Z,60.94
2023-07-25T23:38:57.430Z,60.92
2023-07-25T23:41:24.035Z,60.86
2023-07-25T23:43:50.759Z,60.89
2023-07-25T23:46:17.424Z,61.19
2023-07-25T23:48:44.188Z,61.75
2023-07-25T23:51:10.873Z,62.12
2023-07-25T23:53:37.722Z,61.49
2023-07-25T23:56:04.800Z,62.03
2023-07-25T23:58:33.642Z,62.45
